createdAt,value
2023-02-19T01:17:12.676Z,95517.00
2023-02-19T01:18:12.660Z,95521.00
2023-02-19T01:19:12.709Z,95521.00
2023-02-19T01:20:12.751Z,95519.00
2023-02-19T01:21:12.841Z,95517.00
2023-02-19T01:22:12.835Z,95513.00
2023-02-19T01:23:12.986Z,95505.00
2023-02-19T01:24:12.925Z,95507.00
2023-02-19T01:25:13.009Z,95513.00
2023-02-19T01:26:13.056Z,95517.00
2023-02-19T01:27:13.152Z,95521.00
2023-02-19T01:28:13.157Z,95515.00
2023-02-19T01:29:13.205Z,95509.00
2023-02-19T01:30:13.266Z,95505.00
2023-02-19T01:31:13.697Z,95509.00
2023-02-19T01:32:13.310Z,95513.00
2023-02-19T01:33:13.319Z,95509.00
2023-02-19T01:34:13.368Z,95507.00
2023-02-19T01:35:13.380Z,95509.00
2023-02-19T01:36:13.418Z,95507.00
2023-02-19T01:37:13.560Z,95507.00
2023-02-19T01:38:13.496Z,95511.00
2023-02-19T01:39:13.546Z,95505.00
2023-02-19T01:40:13.550Z,95503.00
2023-02-19T01:41:13.619Z,95503.00
2023-02-19T01:42:13.630Z,95503.00
2023-02-19T01:43:13.660Z,95509.00
2023-02-19T01:44:13.724Z,95505.00
2023-02-19T01:45:13.777Z,95501.00
2023-02-19T01:46:13.822Z,95503.00
2023-02-19T01:47:13.857Z,95498.00
2023-02-19T01:48:13.877Z,95498.00
2023-02-19T01:49:13.929Z,95501.00
2023-02-19T01:50:13.973Z,95499.00
2023-02-19T01:51:13.990Z,95503.00
2023-02-19T01:52:14.059Z,95501.00
2023-02-19T01:53:14.138Z,95499.00
2023-02-19T01:54:14.141Z,95501.00
2023-02-19T01:55:14.214Z,95498.00
2023-02-19T01:56:14.191Z,95496.00
2023-02-19T01:57:14.273Z,95498.00
2023-02-19T01:58:14.290Z,95496.00
2023-02-19T01:59:14.467Z,95498.00
2023-02-19T02:00:14.400Z,95499.00
2023-02-19T02:01:14.676Z,95498.00
2023-02-19T02:02:14.619Z,95492.00
2023-02-19T02:03:14.613Z,95486.00
2023-02-19T02:04:14.672Z,95486.00
2023-02-19T02:05:14.687Z,95486.00
2023-02-19T02:06:14.730Z,95490.00
2023-02-19T02:07:14.764Z,95490.00
2023-02-19T02:08:14.788Z,95488.00
2023-02-19T02:09:14.808Z,95488.00
2023-02-19T02:10:14.836Z,95488.00
2023-02-19T02:11:14.854Z,95484.00
2023-02-19T02:12:14.890Z,95480.00
2023-02-19T02:14:14.959Z,95482.00
2023-02-19T02:15:15.025Z,95482.00
2023-02-19T02:16:15.066Z,95482.00
2023-02-19T02:17:15.072Z,95482.00
2023-02-19T02:18:15.113Z,95478.00
2023-02-19T02:19:15.127Z,95478.00
2023-02-19T02:20:15.222Z,95478.00
2023-02-19T02:21:15.161Z,95476.00
2023-02-19T02:22:15.236Z,95474.00
2023-02-19T02:23:15.292Z,95470.00
2023-02-19T02:24:15.319Z,95470.00
2023-02-19T02:25:15.415Z,95472.00
2023-02-19T02:26:15.437Z,95470.00
2023-02-19T02:27:15.499Z,95470.00
2023-02-19T02:28:15.543Z,95468.00
2023-02-19T02:29:15.590Z,95472.00
2023-02-19T02:30:15.649Z,95472.00
2023-02-19T02:31:15.731Z,95470.00
2023-02-19T02:32:15.846Z,95466.00
2023-02-19T02:33:15.769Z,95466.00
2023-02-19T02:34:15.795Z,95466.00
2023-02-19T02:35:15.846Z,95464.00
2023-02-19T02:36:15.885Z,95468.00
2023-02-19T02:37:15.936Z,95460.00
2023-02-19T02:38:15.999Z,95458.00
2023-02-19T02:39:16.054Z,95458.00
2023-02-19T02:40:16.082Z,95464.00
2023-02-19T02:41:16.096Z,95464.00
2023-02-19T02:42:16.133Z,95460.00
2023-02-19T02:43:16.198Z,95456.00
2023-02-19T02:44:16.246Z,95458.00
2023-02-19T02:45:16.292Z,95460.00
2023-02-19T02:46:16.291Z,95462.00
2023-02-19T02:47:16.317Z,95454.00
2023-02-19T02:48:16.370Z,95449.00
2023-02-19T02:49:16.408Z,95452.00
2023-02-19T02:50:16.472Z,95456.00
2023-02-19T02:51:16.496Z,95462.00
2023-02-19T02:52:16.551Z,95458.00
2023-02-19T02:53:16.615Z,95452.00
2023-02-19T02:54:16.628Z,95449.00
2023-02-19T02:55:16.656Z,95452.00
2023-02-19T02:56:16.685Z,95454.00
2023-02-19T02:57:16.752Z,95449.00
2023-02-19T02:58:16.807Z,95447.00
2023-02-19T02:59:16.851Z,95445.00
2023-02-19T03:00:16.886Z,95443.00
2023-02-19T03:01:16.959Z,95445.00
2023-02-19T03:02:17.025Z,95443.00
2023-02-19T03:03:17.034Z,95433.00
2023-02-19T03:04:17.104Z,95427.00
2023-02-19T03:05:17.109Z,95431.00
2023-02-19T03:06:17.166Z,95439.00
2023-02-19T03:07:17.187Z,95443.00
2023-02-19T03:08:17.210Z,95441.00
2023-02-19T03:09:17.268Z,95435.00
2023-02-19T03:10:17.301Z,95427.00
2023-02-19T03:11:17.353Z,95421.00
2023-02-19T03:12:17.376Z,95427.00
2023-02-19T03:13:17.460Z,95427.00
2023-02-19T03:14:17.484Z,95431.00
2023-02-19T03:15:17.502Z,95437.00
2023-02-19T03:16:17.595Z,95439.00
2023-02-19T03:17:17.602Z,95431.00
2023-02-19T03:18:17.648Z,95423.00
2023-02-19T03:19:17.681Z,95423.00
2023-02-19T03:20:17.739Z,95427.00
2023-02-19T03:21:17.779Z,95431.00
2023-02-19T03:22:17.833Z,95435.00
2023-02-19T03:23:17.879Z,95433.00
2023-02-19T03:24:17.893Z,95437.00
2023-02-19T03:25:17.924Z,95431.00
2023-02-19T03:26:17.936Z,95421.00
2023-02-19T03:27:17.985Z,95417.00
2023-02-19T03:28:17.988Z,95425.00
2023-02-19T03:29:18.027Z,95435.00
2023-02-19T03:30:18.127Z,95433.00
2023-02-19T03:31:18.199Z,95425.00
2023-02-19T03:32:18.248Z,95421.00
2023-02-19T03:33:18.188Z,95417.00
2023-02-19T03:34:18.221Z,95419.00
2023-02-19T03:35:18.242Z,95421.00
2023-02-19T03:36:18.258Z,95417.00
2023-02-19T03:37:18.298Z,95413.00
2023-02-19T03:38:18.316Z,95411.00
2023-02-19T03:39:18.351Z,95409.00
2023-02-19T03:40:18.388Z,95409.00
2023-02-19T03:41:18.456Z,95413.00
2023-02-19T03:42:18.467Z,95417.00
2023-02-19T03:43:18.529Z,95417.00
2023-02-19T03:44:18.553Z,95413.00
2023-02-19T03:45:18.574Z,95413.00
2023-02-19T03:46:18.633Z,95413.00
2023-02-19T03:47:18.645Z,95411.00
2023-02-19T03:48:18.651Z,95394.00
2023-02-19T03:49:18.700Z,95392.00
2023-02-19T03:50:18.744Z,95390.00
2023-02-19T03:51:18.791Z,95394.00
2023-02-19T03:53:18.860Z,95392.00
2023-02-19T03:54:18.857Z,95398.00
2023-02-19T03:55:18.908Z,95405.00
2023-02-19T03:56:18.921Z,95394.00
2023-02-19T03:57:18.997Z,95386.00
2023-02-19T03:58:18.973Z,95386.00
2023-02-19T03:59:19.006Z,95386.00
2023-02-19T04:00:19.036Z,95388.00
2023-02-19T04:01:19.042Z,95388.00
2023-02-19T04:02:19.178Z,95382.00
2023-02-19T04:03:19.146Z,95378.00
2023-02-19T04:04:19.210Z,95376.00
2023-02-19T04:05:19.225Z,95376.00
2023-02-19T04:06:19.254Z,95382.00
2023-02-19T04:07:19.291Z,95382.00
2023-02-19T04:08:19.302Z,95378.00
2023-02-19T04:09:19.348Z,95372.00
2023-02-19T04:10:19.348Z,95372.00
2023-02-19T04:11:19.407Z,95376.00
2023-02-19T04:12:19.441Z,95378.00
2023-02-19T04:13:19.480Z,95370.00
2023-02-19T04:14:19.519Z,95364.00
2023-02-19T04:15:19.586Z,95374.00
2023-02-19T04:17:19.610Z,95374.00
2023-02-19T04:18:19.682Z,95364.00
2023-02-19T04:19:19.715Z,95362.00
2023-02-19T04:20:19.732Z,95368.00
2023-02-19T04:21:19.773Z,95372.00
2023-02-19T04:22:19.801Z,95368.00
2023-02-19T04:23:19.791Z,95368.00
2023-02-19T04:24:19.819Z,95374.00
2023-02-19T04:25:19.867Z,95380.00
2023-02-19T04:26:19.960Z,95372.00
2023-02-19T04:36:20.280Z,95372.00
2023-02-19T04:37:20.340Z,95380.00
2023-02-19T04:38:20.374Z,95386.00
2023-02-19T04:39:20.392Z,95386.00
2023-02-19T04:40:20.418Z,95380.00
2023-02-19T04:41:20.439Z,95370.00
2023-02-19T04:42:20.519Z,95370.00
2023-02-19T04:43:20.539Z,95368.00
2023-02-19T04:44:20.601Z,95366.00
2023-02-19T04:45:20.675Z,95364.00
2023-02-19T04:46:20.682Z,95368.00
2023-02-19T04:47:20.712Z,95368.00
2023-02-19T04:48:20.715Z,95372.00
2023-02-19T04:49:20.794Z,95368.00
2023-02-19T04:50:20.884Z,95352.00
2023-02-19T04:51:20.895Z,95349.00
2023-02-19T04:52:20.944Z,95343.00
2023-02-19T04:53:20.998Z,95351.00
2023-02-19T04:54:21.046Z,95354.00
2023-02-19T04:55:21.041Z,95360.00
2023-02-19T04:56:21.113Z,95358.00
2023-02-19T04:57:21.199Z,95358.00
2023-02-19T04:58:21.223Z,95354.00
2023-02-19T04:59:21.246Z,95354.00
2023-02-19T05:00:21.281Z,95354.00
2023-02-19T05:01:21.361Z,95349.00
2023-02-19T05:02:21.374Z,95339.00
2023-02-19T05:03:21.445Z,95341.00
2023-02-19T05:04:21.499Z,95345.00
2023-02-19T05:05:21.542Z,95347.00
2023-02-19T05:06:21.578Z,95345.00
2023-02-19T05:07:21.647Z,95341.00
2023-02-19T05:08:21.723Z,95339.00
2023-02-19T05:09:21.733Z,95335.00
2023-02-19T05:10:21.795Z,95331.00
2023-02-19T05:11:21.850Z,95333.00
2023-02-19T05:12:21.895Z,95337.00
2023-02-19T05:13:21.921Z,95337.00
2023-02-19T05:14:21.935Z,95337.00
2023-02-19T05:15:21.989Z,95335.00
2023-02-19T05:16:22.034Z,95337.00
2023-02-19T05:17:22.129Z,95339.00
2023-02-19T05:18:22.066Z,95337.00
2023-02-19T05:20:22.136Z,95349.00
2023-02-19T05:21:22.196Z,95354.00
2023-02-19T05:33:22.665Z,95376.00
2023-02-19T05:34:22.726Z,95376.00
2023-02-19T05:35:22.803Z,95374.00
2023-02-19T05:36:22.831Z,95374.00
2023-02-19T05:37:22.879Z,95376.00
2023-02-19T05:38:22.908Z,95384.00
2023-02-19T05:39:22.949Z,95405.00
2023-02-19T05:40:23.007Z,95419.00
2023-02-19T05:41:23.050Z,95433.00
2023-02-19T05:42:23.091Z,95425.00
2023-02-19T05:43:23.142Z,95419.00
2023-02-19T05:44:23.171Z,95435.00
2023-02-19T05:45:23.194Z,95445.00
2023-02-19T05:46:23.282Z,95454.00
2023-02-19T05:47:23.292Z,95460.00
2023-02-19T05:48:23.295Z,95460.00
2023-02-19T05:49:23.357Z,95454.00
2023-02-19T05:50:23.385Z,95451.00
2023-02-19T05:51:23.388Z,95456.00
2023-02-19T05:52:23.456Z,95470.00
2023-02-19T05:53:23.488Z,95496.00
2023-02-19T05:54:23.549Z,95521.00
2023-02-19T05:55:23.590Z,95521.00
2023-02-19T05:56:23.637Z,95505.00
2023-02-19T05:57:23.668Z,95486.00
2023-02-19T05:58:23.722Z,95488.00
2023-02-19T05:59:23.742Z,95480.00
2023-02-19T06:00:23.771Z,95474.00
2023-02-19T06:01:24.152Z,95484.00
2023-02-19T06:02:24.257Z,95499.00
2023-02-19T06:03:24.021Z,95509.00
2023-02-19T06:04:24.002Z,95519.00
2023-02-19T06:05:24.017Z,95521.00
2023-02-19T06:06:24.068Z,95519.00
2023-02-19T06:07:24.110Z,95519.00
2023-02-19T06:08:24.134Z,95517.00
2023-02-19T06:09:24.200Z,95511.00
2023-02-19T06:10:24.223Z,95515.00
2023-02-19T06:11:24.303Z,95511.00
2023-02-19T06:12:24.337Z,95503.00
2023-02-19T06:13:24.377Z,95490.00
2023-02-19T06:14:24.436Z,95476.00
2023-02-19T06:15:24.468Z,95474.00
2023-02-19T06:16:24.557Z,95476.00
2023-02-19T06:17:24.596Z,95478.00
2023-02-19T06:18:24.587Z,95478.00
2023-02-19T06:19:24.633Z,95486.00
2023-02-19T06:20:26.316Z,95484.00
2023-02-19T06:21:24.712Z,95476.00
2023-02-19T06:22:24.760Z,95472.00
2023-02-19T06:23:24.798Z,95472.00
2023-02-19T06:24:24.864Z,95476.00
2023-02-19T06:25:24.935Z,95476.00
2023-02-19T06:26:24.983Z,95478.00
2023-02-19T06:27:25.153Z,95476.00
2023-02-19T06:28:25.138Z,95472.00
2023-02-19T06:29:25.225Z,95474.00
2023-02-19T06:30:25.348Z,95468.00
2023-02-19T06:31:25.393Z,95470.00
2023-02-19T06:32:25.394Z,95472.00
2023-02-19T06:33:25.381Z,95474.00
2023-02-19T06:34:25.428Z,95474.00
2023-02-19T06:35:25.437Z,95472.00
2023-02-19T06:36:25.531Z,95472.00
2023-02-19T06:37:25.536Z,95478.00
2023-02-19T06:38:25.573Z,95484.00
2023-02-19T06:39:25.605Z,95480.00
2023-02-19T06:40:25.665Z,95474.00
2023-02-19T06:41:25.688Z,95472.00
2023-02-19T06:42:25.710Z,95470.00
2023-02-19T06:43:25.768Z,95474.00
2023-02-19T06:44:25.795Z,95480.00
2023-02-19T06:45:25.939Z,95480.00
2023-02-19T06:46:25.888Z,95474.00
2023-02-19T06:47:25.924Z,95468.00
2023-02-19T06:48:26.000Z,95466.00
2023-02-19T06:49:25.996Z,95466.00
2023-02-19T06:50:26.055Z,95470.00
2023-02-19T06:51:26.070Z,95476.00
2023-02-19T06:52:26.080Z,95484.00
2023-02-19T06:53:26.136Z,95486.00
2023-02-19T06:54:26.169Z,95486.00
2023-02-19T06:55:26.205Z,95482.00
2023-02-19T06:56:26.226Z,95484.00
2023-02-19T06:57:26.252Z,95488.00
2023-02-19T06:58:26.310Z,95490.00
2023-02-19T06:59:26.321Z,95492.00
2023-02-19T07:00:26.367Z,95484.00
2023-02-19T07:01:26.390Z,95480.00
2023-02-19T07:02:26.441Z,95484.00
2023-02-19T07:03:26.506Z,95488.00
2023-02-19T07:04:26.518Z,95488.00
2023-02-19T07:05:26.523Z,95488.00
2023-02-19T07:06:26.556Z,95482.00
2023-02-19T07:07:26.599Z,95484.00
2023-02-19T07:08:29.274Z,95494.00
2023-02-19T07:09:26.615Z,95501.00
2023-02-19T07:10:26.628Z,95498.00
2023-02-19T07:11:26.654Z,95494.00
2023-02-19T07:12:26.662Z,95492.00
2023-02-19T07:13:26.731Z,95499.00
2023-02-19T07:14:26.712Z,95501.00
2023-02-19T07:15:26.717Z,95498.00
2023-02-19T07:16:26.779Z,95494.00
2023-02-19T07:17:26.742Z,95492.00
2023-02-19T07:18:26.764Z,95486.00
2023-02-19T07:19:26.764Z,95490.00
2023-02-19T07:20:26.833Z,95498.00
2023-02-19T07:21:26.831Z,95494.00
2023-02-19T07:22:26.802Z,95486.00
2023-02-19T07:23:26.826Z,95476.00
2023-02-19T07:24:26.850Z,95482.00
2023-02-19T07:25:26.869Z,95490.00
2023-02-19T07:26:26.879Z,95494.00
2023-02-19T07:27:26.899Z,95498.00
2023-02-19T07:28:26.905Z,95499.00
2023-02-19T07:29:26.913Z,95496.00
2023-02-19T07:30:26.941Z,95498.00
2023-02-19T07:31:27.041Z,95511.00
2023-02-19T07:32:26.965Z,95511.00
2023-02-19T07:33:26.941Z,95511.00
2023-02-19T07:34:26.988Z,95507.00
2023-02-19T07:35:26.982Z,95505.00
2023-02-19T07:36:27.005Z,95513.00
2023-02-19T07:37:27.044Z,95525.00
2023-02-19T07:38:27.040Z,95529.00
2023-02-19T07:39:27.046Z,95517.00
2023-02-19T07:40:27.098Z,95499.00
2023-02-19T07:41:27.152Z,95507.00
2023-02-19T07:42:27.101Z,95531.00
2023-02-19T07:43:27.118Z,95539.00
2023-02-19T07:44:27.157Z,95533.00
2023-02-19T07:45:27.157Z,95533.00
2023-02-19T07:46:27.177Z,95529.00
2023-02-19T07:47:27.192Z,95523.00
2023-02-19T07:48:27.212Z,95523.00
2023-02-19T07:49:27.222Z,95537.00
2023-02-19T07:50:27.220Z,95549.00
2023-02-19T07:51:27.238Z,95543.00
2023-02-19T07:52:27.237Z,95533.00
2023-02-19T07:53:27.258Z,95535.00
2023-02-19T07:54:27.316Z,95543.00
2023-02-19T07:55:27.311Z,95541.00
2023-02-19T07:56:27.291Z,95531.00
2023-02-19T07:57:27.327Z,95529.00
2023-02-19T07:58:27.317Z,95535.00
2023-02-19T07:59:27.372Z,95545.00
2023-02-19T08:00:27.416Z,95549.00
2023-02-19T08:01:27.409Z,95553.00
2023-02-19T08:02:27.418Z,95554.00
2023-02-19T08:03:27.408Z,95547.00
2023-02-19T08:04:27.427Z,95537.00
2023-02-19T08:05:27.452Z,95529.00
2023-02-19T08:06:27.448Z,95543.00
2023-02-19T08:07:27.490Z,95554.00
2023-02-19T08:08:27.517Z,95562.00
2023-02-19T08:09:27.526Z,95556.00
2023-02-19T08:10:27.535Z,95553.00
2023-02-19T08:11:27.533Z,95547.00
2023-02-19T08:12:27.582Z,95553.00
2023-02-19T08:13:27.565Z,95556.00
2023-02-19T08:14:27.639Z,95553.00
2023-02-19T08:15:27.625Z,95556.00
2023-02-19T08:16:41.941Z,95556.00
2023-02-19T08:17:28.744Z,95558.00
2023-02-19T08:18:27.728Z,95553.00
2023-02-19T08:19:27.710Z,95545.00
2023-02-19T08:20:27.731Z,95545.00
2023-02-19T08:21:27.768Z,95558.00
2023-02-19T08:22:27.795Z,95562.00
2023-02-19T08:23:27.870Z,95562.00
2023-02-19T08:24:27.854Z,95556.00
2023-02-19T08:25:27.889Z,95554.00
2023-02-19T08:26:27.901Z,95560.00
2023-02-19T09:58:32.666Z,95499.00
2023-02-19T09:59:32.722Z,95505.00
2023-02-19T10:00:32.764Z,95509.00
2023-02-19T10:01:32.844Z,95509.00
2023-02-19T10:02:32.873Z,95507.00
2023-02-19T10:03:32.949Z,95503.00
2023-02-19T10:04:32.968Z,95507.00
2023-02-19T10:05:33.005Z,95507.00
2023-02-19T10:06:33.068Z,95509.00
2023-02-19T10:07:33.108Z,95507.00
2023-02-19T10:08:33.185Z,95503.00
2023-02-19T10:09:33.220Z,95505.00
2023-02-19T10:10:33.263Z,95501.00
2023-02-19T10:11:33.300Z,95503.00
2023-02-19T10:12:33.356Z,95505.00
2023-02-19T10:13:33.425Z,95492.00
2023-02-19T10:14:33.456Z,95492.00
2023-02-19T10:15:33.553Z,95498.00
2023-02-19T10:16:33.585Z,95503.00
2023-02-19T10:17:33.615Z,95511.00
2023-02-19T10:18:33.679Z,95511.00
2023-02-19T10:19:33.698Z,95503.00
2023-02-19T10:20:33.747Z,95492.00
2023-02-19T10:21:33.809Z,95496.00
2023-02-19T10:22:33.832Z,95501.00
2023-02-19T10:23:33.906Z,95498.00
2023-02-19T10:24:33.954Z,95498.00
2023-02-19T10:25:34.020Z,95498.00
2023-02-19T10:26:34.063Z,95499.00
2023-02-19T10:27:34.096Z,95505.00
2023-02-19T10:28:34.681Z,95507.00
2023-02-19T10:29:34.208Z,95511.00
2023-02-19T10:30:34.278Z,95515.00
2023-02-19T10:31:34.360Z,95517.00
2023-02-19T10:32:34.311Z,95513.00
2023-02-19T10:33:34.340Z,95507.00
2023-02-19T10:34:34.391Z,95498.00
2023-02-19T10:35:34.428Z,95499.00
2023-02-19T10:36:34.480Z,95499.00
2023-02-19T10:37:34.543Z,95505.00
2023-02-19T10:38:34.586Z,95505.00
2023-02-19T10:39:34.595Z,95507.00
2023-02-19T10:40:34.645Z,95501.00
2023-02-19T10:41:34.672Z,95498.00
2023-02-19T10:42:34.711Z,95499.00
2023-02-19T10:43:34.748Z,95496.00
2023-02-19T10:44:34.798Z,95496.00
2023-02-19T10:45:34.826Z,95499.00
2023-02-19T10:46:34.893Z,95503.00
2023-02-19T10:47:34.910Z,95496.00
2023-02-19T10:48:34.944Z,95490.00
2023-02-19T10:49:34.994Z,95488.00
2023-02-19T10:50:35.041Z,95488.00
2023-02-19T11:03:35.497Z,95486.00
2023-02-19T11:04:35.700Z,95482.00
2023-02-19T11:05:35.612Z,95476.00
2023-02-19T11:06:35.630Z,95476.00
2023-02-19T11:07:35.691Z,95476.00
2023-02-19T11:08:35.720Z,95474.00
2023-02-19T11:09:35.771Z,95468.00
2023-02-19T11:10:35.829Z,95468.00
2023-02-19T11:11:35.820Z,95468.00
2023-02-19T11:12:35.839Z,95462.00
2023-02-19T11:13:35.912Z,95466.00
2023-02-19T11:14:35.967Z,95466.00
2023-02-19T11:15:35.997Z,95472.00
2023-02-19T11:16:36.044Z,95466.00
2023-02-19T11:17:36.070Z,95462.00
2023-02-19T11:18:36.059Z,95456.00
2023-02-19T11:19:36.128Z,95447.00
2023-02-19T11:20:36.164Z,95447.00
2023-02-19T11:21:36.169Z,95443.00
2023-02-19T11:22:36.219Z,95435.00
2023-02-19T11:23:36.321Z,95447.00
2023-02-19T11:24:36.258Z,95452.00
2023-02-19T11:25:36.317Z,95447.00
2023-02-19T11:26:36.347Z,95439.00
2023-02-19T11:27:36.399Z,95441.00
2023-02-19T11:28:36.377Z,95447.00
2023-02-19T11:29:36.449Z,95449.00
2023-02-19T11:30:36.712Z,95452.00
2023-02-19T11:31:36.633Z,95458.00
2023-02-19T11:32:36.512Z,95451.00
2023-02-19T11:33:36.537Z,95437.00
2023-02-19T11:34:36.570Z,95429.00
2023-02-19T11:35:36.586Z,95421.00
2023-02-19T11:36:36.648Z,95429.00
2023-02-19T11:37:36.647Z,95425.00
2023-02-19T11:38:36.622Z,95417.00
2023-02-19T11:39:36.666Z,95413.00
2023-02-19T11:40:36.695Z,95411.00
2023-02-19T11:41:36.719Z,95396.00
2023-02-19T11:42:36.781Z,95392.00
2023-02-19T11:43:36.802Z,95405.00
2023-02-19T11:44:36.838Z,95407.00
2023-02-19T11:45:36.848Z,95394.00
2023-02-19T11:46:36.922Z,95398.00
2023-02-19T11:47:36.907Z,95394.00
2023-02-19T11:48:36.930Z,95390.00
2023-02-19T11:49:36.976Z,95382.00
2023-02-19T11:50:36.992Z,95380.00
2023-02-19T11:51:37.019Z,95380.00
2023-02-19T11:52:37.066Z,95382.00
2023-02-19T11:53:37.095Z,95368.00
2023-02-19T11:54:37.161Z,95362.00
2023-02-19T11:55:37.161Z,95360.00
2023-02-19T11:56:37.233Z,95364.00
2023-02-19T11:57:37.239Z,95358.00
2023-02-19T11:58:37.203Z,95351.00
2023-02-19T11:59:37.270Z,95341.00
2023-02-19T12:00:37.238Z,95335.00
2023-02-19T12:01:37.391Z,95339.00
2023-02-19T12:02:37.304Z,95337.00
2023-02-19T12:03:37.356Z,95337.00
2023-02-19T12:04:37.888Z,95341.00
2023-02-19T12:05:37.396Z,95341.00
2023-02-19T12:06:37.408Z,95343.00
2023-02-19T12:07:37.434Z,95339.00
2023-02-19T12:08:37.494Z,95331.00
2023-02-19T12:09:37.532Z,95321.00
2023-02-19T12:10:37.539Z,95317.00
2023-02-19T12:11:37.584Z,95325.00
2023-02-19T12:12:38.011Z,95337.00
2023-02-19T12:14:37.645Z,95329.00
2023-02-19T12:15:37.629Z,95325.00
2023-02-19T12:16:37.735Z,95311.00
2023-02-19T12:17:37.675Z,95309.00
2023-02-19T12:18:37.681Z,95315.00
2023-02-19T12:19:37.730Z,95319.00
2023-02-19T12:20:37.721Z,95329.00
2023-02-19T12:21:37.743Z,95309.00
2023-02-19T12:22:37.777Z,95325.00
2023-02-19T12:23:37.873Z,95313.00
2023-02-19T12:24:37.823Z,95307.00
2023-02-19T12:25:37.847Z,95309.00
2023-02-19T12:26:37.858Z,95313.00
2023-02-19T12:27:37.872Z,95321.00
2023-02-19T12:28:37.897Z,95321.00
2023-02-19T12:29:37.940Z,95321.00
2023-02-19T12:30:38.000Z,95321.00
2023-02-19T12:31:38.001Z,95311.00
2023-02-19T12:32:37.989Z,95315.00
2023-02-19T12:33:37.973Z,95309.00
2023-02-19T12:34:38.005Z,95315.00
2023-02-19T12:35:38.032Z,95317.00
2023-02-19T12:36:38.070Z,95323.00
2023-02-19T12:37:38.067Z,95305.00
2023-02-19T12:38:38.130Z,95315.00
2023-02-19T12:39:38.098Z,95311.00
2023-02-19T12:40:38.114Z,95311.00
2023-02-19T12:41:38.193Z,95309.00
2023-02-19T12:42:38.163Z,95307.00
2023-02-19T12:43:38.161Z,95309.00
2023-02-19T12:44:38.179Z,95303.00
2023-02-19T12:45:38.235Z,95290.00
2023-02-19T12:46:38.225Z,95311.00
2023-02-19T12:47:38.265Z,95309.00
2023-02-19T12:48:38.275Z,95296.00
2023-02-19T12:49:38.317Z,95292.00
2023-02-19T12:50:38.300Z,95307.00
2023-02-19T12:51:38.366Z,95300.00
2023-02-19T12:52:38.337Z,95284.00
2023-02-19T12:54:38.425Z,95298.00
2023-02-19T12:55:38.408Z,95301.00
2023-02-19T12:56:38.471Z,95300.00
2023-02-19T12:57:38.490Z,95309.00
2023-02-19T12:58:38.479Z,95307.00
2023-02-19T12:59:38.515Z,95294.00
2023-02-19T13:00:38.533Z,95301.00
2023-02-19T13:01:38.587Z,95292.00
2023-02-19T13:02:38.623Z,95290.00
2023-02-19T13:03:38.613Z,95305.00
2023-02-19T13:04:38.664Z,95290.00
2023-02-19T13:05:38.662Z,95286.00
2023-02-19T13:06:38.667Z,95311.00
2023-02-19T13:07:38.683Z,95305.00
2023-02-19T13:08:42.102Z,95309.00
2023-02-19T13:10:38.692Z,95313.00
2023-02-19T13:11:38.756Z,95309.00
2023-02-19T13:12:38.702Z,95298.00
2023-02-19T13:13:38.689Z,95292.00
2023-02-19T13:14:38.712Z,95303.00
2023-02-19T13:15:38.710Z,95303.00
2023-02-19T13:16:38.739Z,95303.00
2023-02-19T13:17:38.733Z,95333.00
2023-02-19T13:18:38.693Z,95321.00
2023-02-19T13:19:38.690Z,95319.00
2023-02-19T13:20:38.683Z,95315.00
2023-02-19T13:21:38.710Z,95315.00
2023-02-19T13:22:38.713Z,95311.00
2023-02-19T13:24:38.687Z,95329.00
2023-02-19T13:25:38.686Z,95329.00
2023-02-19T13:26:38.761Z,95337.00
2023-02-19T13:27:41.281Z,95335.00
2023-02-19T13:28:38.705Z,95335.00
2023-02-19T13:29:38.726Z,95347.00
2023-02-19T16:35:42.659Z,95515.00
2023-02-19T16:36:42.722Z,95515.00
2023-02-19T16:37:42.769Z,95511.00
2023-02-19T16:38:42.820Z,95503.00
2023-02-19T16:39:42.891Z,95498.00
2023-02-19T16:40:42.957Z,95499.00
2023-02-19T16:41:42.985Z,95505.00
2023-02-19T16:42:43.077Z,95511.00
2023-02-19T16:43:43.092Z,95519.00
2023-02-19T16:44:43.168Z,95519.00
2023-02-19T16:45:43.265Z,95521.00
2023-02-19T16:46:43.271Z,95521.00
2023-02-19T16:47:43.320Z,95521.00
2023-02-19T16:48:43.383Z,95519.00
2023-02-19T16:49:43.426Z,95517.00
2023-02-19T16:52:43.615Z,95519.00
2023-02-19T16:53:43.685Z,95525.00
2023-02-19T16:54:43.741Z,95529.00
2023-02-19T16:55:43.787Z,95535.00
2023-02-19T16:56:43.845Z,95531.00
2023-02-19T16:57:43.886Z,95533.00
2023-02-19T16:58:43.939Z,95533.00
2023-02-19T17:00:44.130Z,95541.00
2023-02-19T17:01:44.137Z,95541.00
2023-02-19T17:02:44.192Z,95537.00
2023-02-19T17:03:44.299Z,95541.00
2023-02-19T17:04:44.305Z,95547.00
2023-02-19T17:05:44.368Z,95558.00
2023-02-19T17:06:44.462Z,95564.00
2023-02-19T17:07:44.504Z,95570.00
2023-02-19T17:08:44.589Z,95570.00
2023-02-19T17:09:44.625Z,95570.00
2023-02-19T17:10:44.712Z,95576.00
2023-02-19T17:11:44.767Z,95580.00
2023-02-19T17:12:44.821Z,95580.00
2023-02-19T17:13:44.881Z,95586.00
2023-02-19T17:15:45.039Z,95594.00
2023-02-19T17:16:45.140Z,95596.00
2023-02-19T17:17:45.162Z,95601.00
2023-02-19T17:18:45.246Z,95607.00
2023-02-19T17:19:45.308Z,95617.00
2023-02-19T17:20:45.369Z,95625.00
2023-02-19T17:22:45.470Z,95631.00
2023-02-19T17:23:45.521Z,95629.00
2023-02-19T17:25:45.636Z,95637.00
2023-02-19T17:26:45.700Z,95639.00
2023-02-19T17:27:45.768Z,95641.00
2023-02-19T17:28:45.864Z,95635.00
2023-02-19T17:29:45.910Z,95635.00
2023-02-19T17:30:45.984Z,95637.00
2023-02-19T17:31:46.073Z,95639.00
2023-02-19T17:33:46.137Z,95639.00
2023-02-19T17:34:46.190Z,95645.00
2023-02-19T17:35:46.263Z,95645.00
2023-02-19T17:36:46.301Z,95647.00
2023-02-19T17:37:46.424Z,95647.00
2023-02-19T17:38:46.457Z,95652.00
2023-02-19T17:39:46.525Z,95664.00
2023-02-19T17:45:46.910Z,95678.00
2023-02-19T17:46:46.919Z,95674.00
2023-02-19T17:47:46.990Z,95678.00
2023-02-19T17:49:47.133Z,95678.00
2023-02-19T17:50:47.345Z,95682.00
2023-02-19T17:51:47.225Z,95680.00
2023-02-19T17:52:47.289Z,95682.00
2023-02-19T17:53:47.393Z,95686.00
2023-02-19T17:54:47.452Z,95690.00
2023-02-19T17:55:47.501Z,95690.00
2023-02-19T17:56:47.598Z,95694.00
2023-02-19T17:57:48.324Z,95698.00
2023-02-19T17:58:47.758Z,95696.00
2023-02-19T18:06:48.239Z,95717.00
2023-02-19T18:07:48.316Z,95721.00
2023-02-19T18:08:48.381Z,95725.00
2023-02-19T18:09:48.432Z,95727.00
2023-02-19T18:10:48.494Z,95733.00
2023-02-19T18:11:48.534Z,95737.00
2023-02-19T18:29:49.676Z,95760.00
2023-02-19T18:31:49.917Z,95758.00
2023-02-19T18:32:49.875Z,95760.00
2023-02-19T18:33:49.960Z,95764.00
2023-02-19T18:37:50.156Z,95770.00
2023-02-19T18:40:50.332Z,95780.00
2023-02-19T19:04:51.726Z,95798.00
2023-02-19T19:07:51.912Z,95805.00
2023-02-19T19:08:51.935Z,95802.00
2023-02-19T19:10:52.097Z,95798.00
2023-02-19T19:11:52.165Z,95803.00
2023-02-19T19:12:52.213Z,95802.00
2023-02-19T19:13:52.238Z,95802.00
2023-02-19T19:14:52.332Z,95802.00
2023-02-19T19:15:52.433Z,95803.00
2023-02-19T19:16:52.422Z,95803.00
2023-02-19T19:17:52.516Z,95807.00
2023-02-19T19:18:52.542Z,95809.00
2023-02-19T19:19:52.574Z,95811.00
2023-02-19T19:20:52.654Z,95811.00
2023-02-19T19:21:53.528Z,95811.00
2023-02-19T19:22:52.699Z,95815.00
2023-02-19T19:23:52.731Z,95817.00
2023-02-19T19:24:52.772Z,95817.00
2023-02-19T19:25:52.823Z,95817.00
2023-02-19T19:26:52.862Z,95821.00